Time;durP1;ratioP1;P1;durP2;ratioP2;P2;SDS_P1;SDS_P2;PMS_P1;PMS_P2;Temp;Humidity;BMP_temperature;BMP_pressure;BME280_temperature;BME280_humidity;BME280_pressure;Samples;Min_cycle;Max_cycle;Signal;HPM_P1;HPM_P2
2023/10/10 00:01:32;;;;;;;4.70;2.47;;;;;;;15.26;100.00;101205.09;5078537;28;20204;-81
2023/10/10 00:03:59;;;;;;;4.07;1.77;;;;;;;15.25;100.00;101207.91;5089367;28;20623;-81
2023/10/10 00:06:28;;;;;;;4.73;2.00;;;;;;;15.26;100.00;101204.25;5088128;28;20807;-82
2023/10/10 00:08:57;;;;;;;4.87;2.07;;;;;;;15.25;100.00;101214.13;5084872;28;20226;-82
2023/10/10 00:11:24;;;;;;;4.77;1.80;;;;;;;15.25;100.00;101203.41;5089673;28;20222;-82
2023/10/10 00:13:52;;;;;;;6.97;2.40;;;;;;;15.26;100.00;101206.94;5084898;28;20207;-81
2023/10/10 00:16:25;;;;;;;6.80;2.20;;;;;;;15.26;100.00;101210.47;5088723;28;20211;-81
2023/10/10 00:18:55;;;;;;;4.23;1.77;;;;;;;15.26;100.00;101210.47;5081149;28;20251;-81
2023/10/10 00:21:23;;;;;;;4.93;2.13;;;;;;;15.26;100.00;101204.25;5081694;28;20640;-81
2023/10/10 00:23:53;;;;;;;5.30;1.93;;;;;;;15.25;100.00;101203.41;5089739;28;20207;-81
2023/10/10 00:26:23;;;;;;;4.67;2.33;;;;;;;15.25;100.00;101219.50;5086424;28;20201;-81
2023/10/10 00:28:55;;;;;;;6.67;1.77;;;;;;;15.25;100.00;101213.28;5089272;28;20757;-81
2023/10/10 00:31:22;;;;;;;6.30;2.07;;;;;;;15.24;100.00;101216.91;5086953;28;20233;-81
2023/10/10 00:33:51;;;;;;;3.50;2.27;;;;;;;15.24;100.00;101208.88;5091930;28;20206;-81
2023/10/10 00:36:22;;;;;;;3.97;1.87;;;;;;;15.23;100.00;101210.69;5087994;28;20234;-81
2023/10/10 00:38:58;;;;;;;3.17;1.93;;;;;;;15.21;100.00;101201.94;5081739;28;20272;-81
2023/10/10 00:41:26;;;;;;;4.73;1.83;;;;;;;15.22;100.00;101211.69;5084817;28;20204;-81
2023/10/10 00:43:53;;;;;;;4.30;1.80;;;;;;;15.21;100.00;101201.06;5083262;28;20199;-81
2023/10/10 00:46:24;;;;;;;4.40;2.20;;;;;;;15.21;100.00;101204.63;5087423;28;20832;-80
2023/10/10 00:48:59;;;;;;;5.70;2.13;;;;;;;15.19;100.00;101203.88;5086417;28;20621;-80
2023/10/10 00:51:29;;;;;;;4.87;2.20;;;;;;;15.20;100.00;101189.47;5087239;28;20593;-81
2023/10/10 00:54:12;;;;;;;5.37;2.43;;;;;;;15.20;100.00;101194.00;5085359;28;20238;-81
2023/10/10 00:56:43;;;;;;;4.10;1.93;;;;;;;15.19;100.00;101187.78;5086246;28;20229;-81
2023/10/10 00:59:10;;;;;;;6.33;2.20;;;;;;;15.21;100.00;101184.97;5090656;28;20198;-81
2023/10/10 01:01:40;;;;;;;4.40;2.30;;;;;;;15.20;100.00;101176.06;5085946;28;20282;-81
2023/10/10 01:04:07;;;;;;;6.07;2.40;;;;;;;15.20;100.00;101183.25;5081981;28;20582;-81
2023/10/10 01:06:39;;;;;;;3.20;2.20;;;;;;;15.21;100.00;101182.28;5084569;28;20616;-81
2023/10/10 01:09:20;;;;;;;8.07;2.47;;;;;;;15.20;100.00;101185.94;5088217;28;20615;-81
2023/10/10 01:11:48;;;;;;;5.67;2.73;;;;;;;15.19;100.00;101178.88;5083110;28;20196;-81
2023/10/10 01:14:18;;;;;;;7.43;2.37;;;;;;;15.18;100.00;101180.69;5083785;28;20234;-81
2023/10/10 01:16:47;;;;;;;7.93;2.60;;;;;;;15.17;100.00;101187.03;5090331;28;20197;-81
2023/10/10 01:19:14;;;;;;;5.07;2.47;;;;;;;15.16;100.00;101188.00;5087473;28;20213;-82
2023/10/10 01:21:50;;;;;;;5.07;2.73;;;;;;;15.15;100.00;101186.28;5073281;28;20575;-81
2023/10/10 01:24:17;;;;;;;7.87;2.80;;;;;;;15.16;100.00;101188.00;5089924;28;20701;-82
2023/10/10 01:26:45;;;;;;;4.77;2.43;;;;;;;15.15;100.00;101178.22;5085208;28;20199;-81
2023/10/10 01:29:21;;;;;;;5.63;2.73;;;;;;;15.15;100.00;101177.38;5085598;28;20724;-83
2023/10/10 01:31:48;;;;;;;4.30;2.60;;;;;;;15.17;100.00;101183.47;5087626;28;20283;-82
2023/10/10 01:34:30;;;;;;;6.30;2.37;;;;;;;15.14;100.00;101183.69;5087635;28;20723;-82
2023/10/10 01:37:02;;;;;;;4.27;2.27;;;;;;;15.13;100.00;101177.47;5084361;28;20231;-82
2023/10/10 01:39:41;;;;;;;3.73;2.37;;;;;;;15.13;100.00;101168.56;5078099;28;20237;-82
2023/10/10 01:42:12;;;;;;;3.77;2.33;;;;;;;15.12;100.00;101162.34;5084998;28;20323;-82
2023/10/10 01:44:39;;;;;;;3.90;2.57;;;;;;;15.11;100.00;101157.94;5084000;28;20266;-82
2023/10/10 01:47:18;;;;;;;7.23;2.70;;;;;;;15.10;100.00;101172.34;5088075;28;20717;-82
2023/10/10 01:49:45;;;;;;;4.00;2.10;;;;;;;15.09;100.00;101167.94;5083430;28;20205;-82
2023/10/10 01:52:17;;;;;;;4.50;2.40;;;;;;;15.08;100.00;101170.72;5082284;28;20217;-81
2023/10/10 01:54:46;;;;;;;4.73;2.63;;;;;;;15.05;100.00;101171.00;5087410;28;20226;-80
2023/10/10 01:57:21;;;;;;;3.37;2.40;;;;;;;15.05;100.00;101168.31;5091161;28;20688;-81
2023/10/10 01:59:48;;;;;;;3.40;2.77;;;;;;;15.03;100.00;101173.78;5075035;28;20226;-81
2023/10/10 02:02:16;;;;;;;4.77;2.60;;;;;;;15.02;100.00;101171.19;5080580;28;20213;-80
2023/10/10 02:04:44;;;;;;;5.47;2.80;;;;;;;15.01;100.00;101164.97;5085054;28;20682;-81
2023/10/10 02:07:16;;;;;;;3.77;2.57;;;;;;;14.99;100.00;101158.88;5090451;28;20691;-82
2023/10/10 02:09:53;;;;;;;3.57;2.43;;;;;;;14.99;100.00;101164.25;5082931;28;20203;-81
2023/10/10 02:12:22;;;;;;;3.50;2.40;;;;;;;14.98;100.00;101167.88;5074430;28;20194;-82
2023/10/10 02:14:49;;;;;;;4.27;2.30;;;;;;;14.97;100.00;101154.59;5083477;28;20222;-81
2023/10/10 02:17:23;;;;;;;3.87;2.43;;;;;;;14.95;100.00;101152.00;5089965;28;20230;-81
2023/10/10 02:19:59;;;;;;;4.73;2.47;;;;;;;14.93;100.00;101149.44;5084272;28;20192;-81
2023/10/10 02:22:36;;;;;;;3.83;2.50;;;;;;;14.94;100.00;101150.28;5089779;28;20194;-80
2023/10/10 02:27:55;;;;;;;3.17;1.90;;;;;;;14.88;100.00;101145.38;5083854;28;20306;-81
2023/10/10 02:30:34;;;;;;;2.00;1.80;;;;;;;14.88;100.00;101154.28;5083413;28;20202;-81
2023/10/10 02:33:02;;;;;;;2.67;1.67;;;;;;;14.85;100.00;101151.84;5082068;28;20316;-81
2023/10/10 02:35:34;;;;;;;3.20;1.97;;;;;;;14.84;100.00;101154.63;5080642;28;20287;-80
2023/10/10 02:38:04;;;;;;;3.00;1.60;;;;;;;14.81;100.00;101154.84;5084947;28;20234;-80
2023/10/10 02:40:32;;;;;;;3.17;2.10;;;;;;;14.79;100.00;101151.44;5076599;28;20292;-81
2023/10/10 02:43:18;;;;;;;2.80;1.73;;;;;;;14.79;100.00;101146.06;5076164;28;20214;-81
2023/10/10 02:45:45;;;;;;;3.83;2.00;;;;;;;14.78;100.00;101152.41;5084587;28;20204;-80
2023/10/10 02:48:20;;;;;;;5.00;3.03;;;;;;;14.75;100.00;101155.28;5081787;28;20217;-80
2023/10/10 02:50:46;;;;;;;2.57;2.13;;;;;;;14.74;100.00;101156.25;5086450;28;20198;-81
2023/10/10 02:53:15;;;;;;;3.07;2.30;;;;;;;14.73;100.00;101165.25;5089935;28;20204;-81
2023/10/10 02:55:50;;;;;;;2.27;2.07;;;;;;;14.71;100.00;101164.50;5092652;28;20233;-80
2023/10/10 02:58:21;;;;;;;3.13;2.10;;;;;;;14.70;100.00;101173.53;5087497;28;20227;-80
2023/10/10 03:00:52;;;;;;;3.93;2.30;;;;;;;14.69;100.00;101174.53;5084081;28;20206;-80
2023/10/10 03:03:19;;;;;;;3.40;2.00;;;;;;;14.67;100.00;101176.47;5088990;28;20223;-81
2023/10/10 03:05:51;;;;;;;5.40;2.17;;;;;;;14.67;100.00;101179.13;5089797;28;20213;-80
2023/10/10 03:08:34;;;;;;;3.97;2.43;;;;;;;14.66;100.00;101177.41;5090024;28;20654;-80
2023/10/10 03:11:13;;;;;;;4.80;2.50;;;;;;;14.68;100.00;101191.56;5082457;28;20291;-80
2023/10/10 03:13:47;;;;;;;4.33;2.47;;;;;;;14.67;100.00;101184.50;5080794;28;20208;-80
2023/10/10 03:16:41;;;;;;;3.03;2.17;;;;;;;14.68;100.00;101180.84;5083113;28;20209;-80
2023/10/10 03:22:19;;;;;;;6.10;2.53;;;;;;;14.68;100.00;101164.75;5080012;28;20203;-81
2023/10/10 03:25:03;;;;;;;6.13;3.10;;;;;;;14.67;100.00;101169.28;5088613;28;20295;-80
2023/10/10 03:27:53;;;;;;;4.07;2.27;;;;;;;14.66;100.00;101162.19;5088400;28;20232;-81
2023/10/10 03:30:21;;;;;;;3.20;2.90;;;;;;;14.65;100.00;101170.34;5086124;28;20332;-81
2023/10/10 03:33:08;;;;;;;12.23;3.67;;;;;;;14.66;100.00;101166.69;5084047;28;20207;-80
2023/10/10 03:35:51;;;;;;;5.47;3.23;;;;;;;14.64;100.00;101169.50;5091167;28;20213;-82
2023/10/10 03:38:43;;;;;;;6.37;3.30;;;;;;;14.65;100.00;101162.31;5093014;28;20627;-81
2023/10/10 05:25:33;;;;;;;7.10;5.20;;;;;;;14.86;100.00;101142.84;5061451;28;20254;-85
2023/10/10 05:27:59;;;;;;;5.33;4.20;;;;;;;14.88;100.00;101137.31;5084018;28;20713;-83
2023/10/10 05:30:39;;;;;;;8.30;4.40;;;;;;;14.89;100.00;101141.72;5086097;28;20303;-83
2023/10/10 05:33:07;;;;;;;5.63;4.60;;;;;;;14.89;100.00;101150.63;5082111;28;20204;-82
2023/10/10 05:35:34;;;;;;;5.17;4.67;;;;;;;14.89;100.00;101145.25;5078041;28;20226;-83
2023/10/10 05:38:04;;;;;;;5.73;4.70;;;;;;;14.89;100.00;101155.13;5084948;28;20320;-85
2023/10/10 05:40:33;;;;;;;7.50;4.87;;;;;;;14.89;100.00;101157.81;5082682;28;20200;-85
2023/10/10 05:43:00;;;;;;;11.47;5.10;;;;;;;14.88;100.00;101156.97;5081091;28;20210;-83
2023/10/10 05:45:26;;;;;;;5.07;4.23;;;;;;;14.89;100.00;101156.00;5079735;28;20301;-84
2023/10/10 05:47:53;;;;;;;6.87;4.60;;;;;;;14.91;100.00;101154.06;5087178;28;20225;-85
2023/10/10 05:50:22;;;;;;;5.07;4.27;;;;;;;14.93;100.00;101148.59;5086255;28;20215;-85
2023/10/10 05:52:48;;;;;;;6.63;4.87;;;;;;;14.91;100.00;101140.66;5085376;28;20209;-84
2023/10/10 05:55:16;;;;;;;6.07;4.67;;;;;;;14.94;100.00;101144.94;5088790;28;20204;-85
2023/10/10 05:57:43;;;;;;;7.47;5.30;;;;;;;14.94;100.00;101139.56;5082662;28;20235;-84
2023/10/10 06:00:11;;;;;;;6.80;5.00;;;;;;;14.94;100.00;101136.88;5084368;28;20202;-85
2023/10/10 06:02:38;;;;;;;9.17;5.53;;;;;;;14.94;100.00;101145.78;5080820;28;20610;-85
2023/10/10 06:05:05;;;;;;;6.90;6.00;;;;;;;14.95;100.00;101141.28;5087312;28;20217;-85
2023/10/10 06:07:32;;;;;;;7.53;6.63;;;;;;;14.96;100.00;101143.00;5081573;28;20753;-85
2023/10/10 06:09:58;;;;;;;9.37;6.93;;;;;;;14.95;100.00;101152.00;5081433;28;20204;-85
2023/10/10 06:12:26;;;;;;;8.90;7.00;;;;;;;14.96;100.00;101152.88;5085579;28;20674;-85
2023/10/10 06:14:54;;;;;;;8.47;6.43;;;;;;;14.96;100.00;101147.50;5083153;28;20209;-84
2023/10/10 06:17:21;;;;;;;6.97;6.27;;;;;;;14.96;100.00;101155.56;5081535;28;20241;-85
2023/10/10 06:19:50;;;;;;;7.97;6.43;;;;;;;14.96;100.00;101166.28;5079610;28;20593;-85
2023/10/10 06:22:16;;;;;;;7.17;6.47;;;;;;;14.97;100.00;101160.81;5078275;28;20332;-85
2023/10/10 06:24:43;;;;;;;9.37;7.00;;;;;;;14.96;100.00;101163.59;5085699;28;20209;-86
2023/10/10 06:27:13;;;;;;;6.97;5.83;;;;;;;14.96;100.00;101169.81;5088452;28;20213;-84
2023/10/10 06:29:41;;;;;;;7.50;6.20;;;;;;;14.97;100.00;101162.63;5080732;28;20274;-85
2023/10/10 06:32:10;;;;;;;8.50;5.93;;;;;;;14.97;100.00;101168.00;5083181;28;20202;-84
2023/10/10 06:34:37;;;;;;;7.23;6.03;;;;;;;14.97;100.00;101171.53;5084170;28;20212;-85
2023/10/10 06:37:07;;;;;;;9.33;5.93;;;;;;;14.99;100.00;101174.97;5079356;28;20232;-85
2023/10/10 06:39:34;;;;;;;6.97;6.27;;;;;;;15.00;100.00;101174.00;5080758;28;20746;-85
2023/10/10 06:42:03;;;;;;;8.73;6.80;;;;;;;15.02;100.00;101155.97;5080823;28;20297;-84
2023/10/10 06:44:34;;;;;;;8.83;6.40;;;;;;;15.05;100.00;101163.75;5083394;28;20217;-85
2023/10/10 06:47:08;;;;;;;9.53;6.73;;;;;;;15.09;100.00;101170.63;5078334;28;20225;-85
2023/10/10 06:49:44;;;;;;;9.80;6.70;;;;;;;15.12;100.00;101173.09;5082343;28;20201;-85
2023/10/10 06:52:17;;;;;;;8.50;6.83;;;;;;;15.16;100.00;101173.72;5079146;28;20213;-84
2023/10/10 06:54:45;;;;;;;11.03;7.27;;;;;;;15.20;100.00;101167.16;5081210;28;20204;-86
2023/10/10 06:57:17;;;;;;;9.37;7.03;;;;;;;15.23;100.00;101157.03;5085075;28;20234;-84
2023/10/10 06:59:44;;;;;;;15.77;12.93;;;;;;;15.28;100.00;101154.00;5078605;28;20222;-85
2023/10/10 07:02:20;;;;;;;13.00;8.83;;;;;;;15.33;100.00;101151.00;5083670;28;20203;-85
2023/10/10 07:04:52;;;;;;;12.70;10.43;;;;;;;15.36;100.00;101157.00;5086149;28;20214;-85
2023/10/10 07:07:19;;;;;;;15.43;13.80;;;;;;;15.40;100.00;101154.94;5084388;28;20596;-85
2023/10/10 07:09:46;;;;;;;16.73;12.43;;;;;;;15.42;100.00;101152.97;5083047;28;20207;-85
2023/10/10 07:12:14;;;;;;;10.20;9.23;;;;;;;15.48;100.00;101149.81;5076251;28;20260;-85
2023/10/10 07:14:43;;;;;;;8.70;7.07;;;;;;;15.50;100.00;101155.94;5084596;28;20260;-85
2023/10/10 07:17:11;;;;;;;9.53;6.77;;;;;;;15.55;100.00;101157.34;5079402;28;20326;-85
2023/10/10 07:20:54;;;;;;;14.67;7.93;;;;;;;15.59;100.00;101160.63;5078726;28;20652;-85
2023/10/10 07:22:28;;;;;;;10.67;6.93;;;;;;;15.59;100.00;101156.13;5082450;28;20251;-85
2023/10/10 07:25:06;;;;;;;6.67;6.00;;;;;;;15.65;100.00;101162.00;5083383;28;20725;-84
2023/10/10 07:27:33;;;;;;;6.80;6.17;;;;;;;15.68;100.00;101161.78;5084582;28;20226;-84
2023/10/10 07:30:08;;;;;;;7.90;6.10;;;;;;;15.70;100.00;101158.00;5083511;28;20206;-85
2023/10/10 07:32:38;;;;;;;7.27;6.50;;;;;;;15.72;100.00;101153.38;5083785;28;20214;-84
2023/10/10 07:35:07;;;;;;;8.33;6.97;;;;;;;15.75;100.00;101152.28;5084231;28;20202;-85
2023/10/10 07:37:35;;;;;;;9.53;6.43;;;;;;;15.78;100.00;101160.94;5082791;28;20238;-84
2023/10/10 07:40:19;;;;;;;11.07;7.40;;;;;;;15.80;100.00;101168.88;5090524;28;20732;-85
2023/10/10 07:42:49;;;;;;;9.77;7.20;;;;;;;15.82;100.00;101170.47;5081958;28;20302;-84
2023/10/10 07:45:26;;;;;;;10.50;6.53;;;;;;;15.86;100.00;101155.84;5090876;28;20238;-84
2023/10/10 07:50:46;;;;;;;10.20;8.27;;;;;;;15.93;100.00;101159.78;5081128;28;20211;-84
2023/10/10 07:53:13;;;;;;;9.77;8.33;;;;;;;15.97;100.00;101153.16;5081914;28;20215;-85
2023/10/10 07:55:52;;;;;;;10.63;7.50;;;;;;;16.02;100.00;101150.13;5079393;28;20919;-85
2023/10/10 07:58:23;;;;;;;9.07;6.90;;;;;;;16.10;100.00;101154.91;5080106;28;20247;-84
2023/10/10 08:00:50;;;;;;;8.43;7.60;;;;;;;16.15;100.00;101155.38;5086444;28;20210;-84
2023/10/10 08:03:20;;;;;;;8.67;6.63;;;;;;;16.22;100.00;101156.63;5089520;28;20201;-84
2023/10/10 08:05:48;;;;;;;8.70;7.00;;;;;;;16.30;100.00;101149.66;5081516;28;20215;-85
2023/10/10 08:08:15;;;;;;;12.60;7.03;;;;;;;16.40;100.00;101148.94;5087848;28;20577;-84
2023/10/10 08:10:44;;;;;;;9.40;6.63;;;;;;;16.46;100.00;101141.25;5080302;28;20223;-85
2023/10/10 08:13:11;;;;;;;8.73;7.50;;;;;;;16.54;100.00;101143.31;5088926;28;20201;-84
2023/10/10 08:15:48;;;;;;;13.27;7.23;;;;;;;16.63;100.00;101139.91;5086120;28;20213;-85
2023/10/10 08:18:23;;;;;;;11.27;7.27;;;;;;;16.72;100.00;101147.22;5084419;28;20217;-86
2023/10/10 08:21:12;;;;;;;8.43;7.13;;;;;;;16.80;100.00;101144.78;5078063;28;20254;-85
2023/10/10 08:23:42;;;;;;;8.73;6.77;;;;;;;16.84;100.00;101143.53;5083464;28;20212;-85
2023/10/10 08:26:10;;;;;;;8.07;6.73;;;;;;;16.86;100.00;101152.34;5090853;28;20206;-85
2023/10/10 08:28:37;;;;;;;9.93;6.33;;;;;;;16.90;100.00;101143.03;5084426;28;20289;-85
2023/10/10 08:31:03;;;;;;;8.53;6.50;;;;;;;17.00;100.00;101149.38;5087286;28;20205;-84
2023/10/10 08:33:32;;;;;;;8.10;6.50;;;;;;;17.14;100.00;101150.06;5084937;28;20209;-85
2023/10/10 08:36:00;;;;;;;11.87;6.70;;;;;;;17.21;100.00;101154.81;5084754;28;20210;-85
2023/10/10 08:38:26;;;;;;;9.63;6.57;;;;;;;17.30;100.00;101155.91;5081460;28;20232;-85
2023/10/10 08:40:57;;;;;;;10.13;6.70;;;;;;;17.37;100.00;101156.25;5087095;28;20213;-85
2023/10/10 08:43:28;;;;;;;8.53;6.33;;;;;;;17.41;100.00;101153.16;5089521;28;20741;-84
2023/10/10 08:45:57;;;;;;;9.00;6.20;;;;;;;17.46;100.00;101148.25;5089771;28;20199;-85
2023/10/10 08:48:26;;;;;;;8.57;5.80;;;;;;;17.52;100.00;101157.66;5084037;28;20228;-86
2023/10/10 08:50:53;;;;;;;9.63;5.90;;;;;;;17.54;99.56;101158.38;5086045;28;20210;-85
2023/10/10 08:53:22;;;;;;;8.07;6.20;;;;;;;17.56;98.16;101149.16;5083591;28;20230;-85
2023/10/10 08:55:56;;;;;;;10.90;6.63;;;;;;;17.62;97.47;101142.41;5080548;28;20206;-85
2023/10/10 08:58:24;;;;;;;8.47;6.50;;;;;;;17.65;97.71;101136.78;5082890;28;20259;-85
2023/10/10 09:00:51;;;;;;;8.73;6.43;;;;;;;17.69;98.07;101144.50;5081586;28;20202;-84
2023/10/10 09:03:18;;;;;;;9.47;7.17;;;;;;;17.72;95.90;101151.47;5084716;28;20698;-84
2023/10/10 09:05:45;;;;;;;10.37;7.47;;;;;;;17.76;95.39;101152.88;5082252;28;20218;-85
2023/10/10 09:08:15;;;;;;;11.00;6.93;;;;;;;17.78;95.53;101155.44;5080258;28;20261;-85
2023/10/10 09:10:46;;;;;;;9.40;7.00;;;;;;;17.81;94.32;101160.59;5081286;28;20798;-85
2023/10/10 09:13:13;;;;;;;8.80;7.40;;;;;;;17.87;93.72;101162.75;5078171;28;20202;-85
2023/10/10 09:15:54;;;;;;;9.57;7.57;;;;;;;17.88;94.35;101161.78;5086786;28;20211;-85
2023/10/10 09:18:22;;;;;;;11.37;7.00;;;;;;;17.95;93.60;101163.78;5083028;28;20271;-85
2023/10/10 09:20:49;;;;;;;9.37;7.23;;;;;;;17.98;94.27;101158.16;5086169;28;20583;-85
2023/10/10 09:23:24;;;;;;;10.87;7.17;;;;;;;18.08;93.84;101149.28;5083113;28;20210;-85
2023/10/10 09:26:09;;;;;;;8.20;7.30;;;;;;;18.12;92.99;101146.16;5086579;28;20204;-85
2023/10/10 09:28:45;;;;;;;9.00;6.43;;;;;;;18.16;91.57;101144.06;5086593;28;20223;-86
2023/10/10 09:31:20;;;;;;;9.57;6.83;;;;;;;18.16;91.32;101154.84;5085889;28;20242;-87
2023/10/10 09:33:47;;;;;;;7.13;6.43;;;;;;;18.16;91.46;101157.53;5086879;28;20670;-86
2023/10/10 09:36:19;;;;;;;11.07;6.93;;;;;;;18.19;91.22;101159.97;5090174;28;20563;-86
2023/10/10 09:38:47;;;;;;;10.97;7.30;;;;;;;18.23;91.69;101164.97;5087076;28;20573;-86
2023/10/10 09:41:27;;;;;;;9.77;7.47;;;;;;;18.35;92.37;101154.94;5084825;28;20202;-86
2023/10/10 09:47:12;;;;;;;13.60;9.43;;;;;;;18.64;90.18;101155.06;5079856;28;20211;-85
2023/10/10 09:49:40;;;;;;;10.30;9.03;;;;;;;18.76;88.82;101153.16;5082217;28;20214;-85
2023/10/10 09:54:56;;;;;;;8.77;7.80;;;;;;;18.93;85.80;101171.38;5081244;28;20679;-85
2023/10/10 09:57:26;;;;;;;11.17;8.50;;;;;;;18.98;84.74;101158.31;5080418;28;20230;-85
2023/10/10 09:59:56;;;;;;;12.50;9.00;;;;;;;19.01;84.56;101153.47;5089106;28;20207;-85
2023/10/10 10:02:40;;;;;;;12.53;9.07;;;;;;;19.05;84.12;101159.47;5081986;28;20219;-85
2023/10/10 10:05:13;;;;;;;11.30;8.63;;;;;;;19.07;84.84;101152.94;5081817;28;20214;-85
2023/10/10 10:07:57;;;;;;;11.90;8.40;;;;;;;19.14;84.86;101146.97;5079673;28;20234;-84
2023/10/10 10:10:48;;;;;;;13.43;9.47;;;;;;;19.22;84.52;101144.41;5083248;28;20315;-85
2023/10/10 10:13:41;;;;;;;10.67;9.57;;;;;;;19.31;84.08;101140.88;5085743;28;20208;-85
2023/10/10 10:16:25;;;;;;;13.33;9.43;;;;;;;19.32;83.88;101140.75;5087833;28;20203;-85
2023/10/10 10:19:05;;;;;;;11.07;9.07;;;;;;;19.36;83.37;101144.84;5087751;28;20307;-86
2023/10/10 10:21:32;;;;;;;11.07;9.57;;;;;;;19.43;82.28;101143.28;5081639;28;20236;-86
2023/10/10 10:24:15;;;;;;;11.33;9.83;;;;;;;19.43;82.35;101137.88;5084214;28;20214;-86
2023/10/10 10:26:43;;;;;;;9.73;8.82;;;;;;;19.49;81.00;101150.00;5085167;28;20205;-85
2023/10/10 10:29:16;;;;;;;14.27;9.13;;;;;;;19.48;81.25;101152.81;5083878;28;20231;-85
2023/10/10 10:31:51;;;;;;;12.00;8.47;;;;;;;19.48;81.75;101144.72;5085015;28;20216;-86
2023/10/10 10:34:25;;;;;;;10.80;9.63;;;;;;;19.53;81.00;101140.59;5084676;28;20229;-86
2023/10/10 10:36:59;;;;;;;13.40;9.38;;;;;;;19.55;80.51;101135.06;5077382;28;20267;-86
2023/10/10 10:39:25;;;;;;;12.50;10.00;;;;;;;19.62;80.80;101136.22;5083346;28;20216;-86
2023/10/10 10:41:54;;;;;;;11.82;9.65;;;;;;;19.68;78.92;101135.66;5078584;28;20208;-86
2023/10/10 10:44:45;;;;;;;12.40;10.00;;;;;;;19.70;79.01;101137.22;5084254;28;20618;-86
2023/10/10 10:47:45;;;;;;;12.30;9.60;;;;;;;19.78;78.53;101117.56;5085727;28;20217;-85
2023/10/10 10:50:28;;;;;;;13.17;9.83;;;;;;;19.85;78.59;101118.69;5080010;28;20200;-86
2023/10/10 10:52:59;;;;;;;12.03;9.73;;;;;;;19.92;78.66;101116.22;5087465;28;20708;-86
2023/10/10 10:55:28;;;;;;;10.70;8.93;;;;;;;19.94;77.55;101114.25;5085867;28;20214;-85
2023/10/10 10:58:06;;;;;;;10.52;9.07;;;;;;;19.97;77.46;101117.50;5085945;28;20232;-86
2023/10/10 11:01:00;;;;;;;10.50;8.18;;;;;;;20.02;77.19;101112.53;5079858;28;20204;-85
2023/10/10 11:03:33;;;;;;;10.05;8.25;;;;;;;20.10;76.73;101117.19;5084778;28;20231;-86
2023/10/10 11:06:00;;;;;;;8.57;7.70;;;;;;;20.19;76.09;101113.59;5085548;28;20290;-86
2023/10/10 11:11:23;;;;;;;9.77;8.77;;;;;;;20.32;75.36;101108.69;5085067;28;20205;-86
2023/10/10 11:13:51;;;;;;;9.70;7.85;;;;;;;20.42;75.22;101111.41;5087610;28;20227;-85
2023/10/10 11:16:23;;;;;;;10.05;8.40;;;;;;;20.45;75.33;101106.53;5084548;28;20208;-86
2023/10/10 11:18:57;;;;;;;9.50;7.53;;;;;;;20.49;75.05;101112.50;5084770;28;20228;-87
2023/10/10 11:21:27;;;;;;;10.10;8.48;;;;;;;20.55;75.52;101109.22;5092300;28;20580;-85
2023/10/10 11:23:57;;;;;;;14.32;8.40;;;;;;;20.58;74.92;101091.81;5090048;28;20196;-86
2023/10/10 11:26:24;;;;;;;9.75;7.95;;;;;;;20.63;75.27;101094.91;5084677;28;20231;-86
2023/10/10 11:28:50;;;;;;;9.27;7.78;;;;;;;20.66;74.66;101084.63;5084009;28;20228;-87
2023/10/10 11:31:23;;;;;;;10.80;8.02;;;;;;;20.67;74.10;101086.34;5084103;28;20678;-86
2023/10/10 11:33:55;;;;;;;10.82;7.70;;;;;;;20.68;73.58;101079.06;5090875;28;20242;-85
2023/10/10 11:36:29;;;;;;;10.90;9.15;;;;;;;20.75;73.84;101069.34;5088116;28;20197;-86
2023/10/10 11:39:15;;;;;;;10.57;7.95;;;;;;;20.79;73.08;101058.03;5092034;28;20228;-86
2023/10/10 11:41:41;;;;;;;9.68;7.78;;;;;;;20.82;73.07;101056.03;5085918;28;20200;-86
2023/10/10 11:44:08;;;;;;;9.77;7.93;;;;;;;20.84;73.59;101044.06;5088807;28;20211;-86
2023/10/10 11:46:38;;;;;;;9.10;8.02;;;;;;;20.84;73.58;101046.75;5079155;28;20201;-86
2023/10/10 11:49:05;;;;;;;9.40;7.47;;;;;;;20.85;73.09;101050.31;5088361;28;20251;-85
2023/10/10 11:51:35;;;;;;;11.80;8.57;;;;;;;20.88;72.89;101048.16;5082801;28;20583;-86
2023/10/10 11:54:01;;;;;;;12.38;8.38;;;;;;;20.92;72.19;101041.44;5087642;28;20655;-87
2023/10/10 11:56:31;;;;;;;10.80;7.78;;;;;;;20.96;72.32;101036.56;5082789;28;20586;-86
2023/10/10 11:58:57;;;;;;;7.93;6.93;;;;;;;20.99;73.52;101025.41;5082758;28;20679;-87
2023/10/10 12:01:49;;;;;;;11.90;7.68;;;;;;;21.02;72.85;101031.38;5085474;28;20232;-86
2023/10/10 12:04:31;;;;;;;10.18;7.78;;;;;;;21.07;73.53;101034.47;5084839;28;20214;-87
2023/10/10 12:06:59;;;;;;;10.35;7.43;;;;;;;21.12;72.23;101029.44;5082023;28;20279;-86
2023/10/10 12:09:26;;;;;;;8.57;7.53;;;;;;;21.18;72.77;101027.94;5086180;28;20208;-86
2023/10/10 12:11:58;;;;;;;12.93;8.38;;;;;;;21.23;71.63;101027.53;5080420;28;20208;-86
2023/10/10 12:14:24;;;;;;;8.93;7.60;;;;;;;21.23;70.66;101022.09;5082665;28;20205;-87
2023/10/10 12:16:57;;;;;;;10.15;7.82;;;;;;;21.28;70.68;101017.06;5085894;28;20215;-87
2023/10/10 12:19:27;;;;;;;11.88;6.93;;;;;;;21.33;71.63;101014.72;5086505;28;20200;-87
2023/10/10 12:21:55;;;;;;;9.00;7.15;;;;;;;21.41;71.96;101015.66;5081139;28;20250;-87
2023/10/10 12:24:22;;;;;;;7.95;6.95;;;;;;;21.51;70.96;101014.69;5082670;28;20205;-87
2023/10/10 12:26:54;;;;;;;10.02;8.18;;;;;;;21.56;69.98;101006.94;5086778;28;20541;-86
2023/10/10 12:29:22;;;;;;;8.98;7.63;;;;;;;21.61;69.87;101018.16;5086942;28;20279;-86
2023/10/10 12:31:55;;;;;;;9.27;7.53;;;;;;;21.60;69.79;101011.88;5082686;28;20216;-87
2023/10/10 12:34:23;;;;;;;11.43;7.88;;;;;;;21.62;70.82;101009.88;5084032;28;20197;-86
2023/10/10 12:36:58;;;;;;;11.02;7.28;;;;;;;21.68;69.76;100997.50;5081427;28;20253;-87
2023/10/10 12:39:27;;;;;;;8.25;7.13;;;;;;;21.72;70.62;100996.19;5086691;28;20236;-87
2023/10/10 12:41:54;;;;;;;9.32;6.72;;;;;;;21.77;70.84;100989.28;5086280;28;20199;-87
2023/10/10 12:44:23;;;;;;;8.82;7.25;;;;;;;21.81;70.32;100992.53;5090911;28;20200;-86
2023/10/10 12:46:54;;;;;;;7.63;6.82;;;;;;;21.82;70.02;100988.81;5091008;28;20204;-86
2023/10/10 12:49:28;;;;;;;9.85;7.07;;;;;;;21.91;69.96;100973.41;5090068;28;20657;-86
2023/10/10 12:51:57;;;;;;;10.27;8.02;;;;;;;21.89;70.53;100976.28;5081522;28;20227;-87
2023/10/10 12:54:27;;;;;;;9.65;6.57;;;;;;;21.92;70.77;100975.97;5085337;28;20214;-86
2023/10/10 12:57:01;;;;;;;8.98;7.32;;;;;;;21.91;71.03;100967.97;5090453;28;20204;-86
2023/10/10 12:59:28;;;;;;;8.65;6.40;;;;;;;21.90;71.04;100960.84;5092089;28;20684;-85
2023/10/10 13:01:56;;;;;;;8.15;6.65;;;;;;;21.86;69.80;100952.19;5088766;28;20219;-85
2023/10/10 13:04:28;;;;;;;11.25;7.10;;;;;;;21.86;70.50;100951.34;5074352;28;20677;-86
2023/10/10 13:07:02;;;;;;;9.25;6.47;;;;;;;21.83;69.97;100956.09;5074287;28;20812;-86
2023/10/10 13:09:29;;;;;;;9.52;6.90;;;;;;;21.88;70.51;100942.03;5075016;28;20196;-84
2023/10/10 13:11:56;;;;;;;9.25;6.32;;;;;;;21.88;70.39;100944.75;5075190;28;20212;-84
2023/10/10 13:14:25;;;;;;;9.10;7.15;;;;;;;21.88;71.02;100931.19;5083353;28;20211;-84
2023/10/10 13:16:53;;;;;;;9.63;6.82;;;;;;;21.94;71.28;100929.69;5094277;28;20219;-85
2023/10/10 13:19:21;;;;;;;9.48;6.88;;;;;;;22.00;68.87;100938.06;5084992;28;20225;-85
2023/10/10 13:21:51;;;;;;;8.10;5.85;;;;;;;22.00;69.69;100939.94;5073733;28;20566;-85
2023/10/10 13:24:20;;;;;;;10.25;6.80;;;;;;;21.97;70.33;100938.34;5074166;28;20738;-85
2023/10/10 13:26:49;;;;;;;9.32;5.80;;;;;;;21.97;70.13;100935.66;5086543;28;20203;-86
2023/10/10 13:29:16;;;;;;;9.00;5.57;;;;;;;21.96;69.82;100931.25;5076169;28;20211;-85
2023/10/10 13:31:44;;;;;;;9.30;6.32;;;;;;;21.99;68.92;100930.91;5074328;28;20257;-85
2023/10/10 13:34:11;;;;;;;9.77;6.32;;;;;;;21.98;69.48;100929.22;5089892;28;20212;-86
2023/10/10 13:36:38;;;;;;;7.93;5.95;;;;;;;22.00;70.83;100921.78;5093642;28;20620;-85
2023/10/10 13:39:07;;;;;;;7.93;5.57;;;;;;;22.06;71.08;100923.84;5093907;28;20704;-85